sensor_id;sensor_type;location;lat;lon;timestamp;P1;durP1;ratioP1;P2;durP2;ratioP2
12425;SDS011;6277;49.824;9.562;2022-11-24T00:00:50;4.88;;;1.25;;
12425;SDS011;6277;49.824;9.562;2022-11-24T00:03:16;4.63;;;1.27;;
12425;SDS011;6277;49.824;9.562;2022-11-24T00:05:42;7.53;;;1.35;;
12425;SDS011;6277;49.824;9.562;2022-11-24T00:08:07;3.63;;;1.10;;
12425;SDS011;6277;49.824;9.562;2022-11-24T00:10:33;3.80;;;1.10;;
12425;SDS011;6277;49.824;9.562;2022-11-24T00:12:59;5.20;;;1.40;;
12425;SDS011;6277;49.824;9.562;2022-11-24T00:15:24;4.22;;;1.30;;
12425;SDS011;6277;49.824;9.562;2022-11-24T00:17:50;3.78;;;1.20;;
12425;SDS011;6277;49.824;9.562;2022-11-24T00:20:16;4.70;;;1.40;;
12425;SDS011;6277;49.824;9.562;2022-11-24T00:22:41;5.32;;;1.40;;
12425;SDS011;6277;49.824;9.562;2022-11-24T00:25:07;6.07;;;1.15;;
12425;SDS011;6277;49.824;9.562;2022-11-24T00:27:32;5.50;;;1.50;;
12425;SDS011;6277;49.824;9.562;2022-11-24T00:29:58;5.45;;;1.50;;
12425;SDS011;6277;49.824;9.562;2022-11-24T00:32:26;6.45;;;1.30;;
12425;SDS011;6277;49.824;9.562;2022-11-24T00:34:53;6.88;;;1.35;;
12425;SDS011;6277;49.824;9.562;2022-11-24T00:37:18;6.65;;;1.50;;
12425;SDS011;6277;49.824;9.562;2022-11-24T00:39:44;4.45;;;1.30;;
12425;SDS011;6277;49.824;9.562;2022-11-24T00:42:09;5.32;;;1.40;;
12425;SDS011;6277;49.824;9.562;2022-11-24T00:44:35;5.78;;;1.10;;
12425;SDS011;6277;49.824;9.562;2022-11-24T00:47:00;6.95;;;1.30;;
12425;SDS011;6277;49.824;9.562;2022-11-24T00:49:26;4.53;;;1.17;;
12425;SDS011;6277;49.824;9.562;2022-11-24T00:51:51;4.72;;;1.20;;
12425;SDS011;6277;49.824;9.562;2022-11-24T00:54:17;3.88;;;1.63;;
12425;SDS011;6277;49.824;9.562;2022-11-24T00:56:42;6.07;;;1.73;;
12425;SDS011;6277;49.824;9.562;2022-11-24T00:59:08;5.03;;;1.65;;
12425;SDS011;6277;49.824;9.562;2022-11-24T01:01:34;6.05;;;1.60;;
12425;SDS011;6277;49.824;9.562;2022-11-24T01:04:00;3.25;;;1.23;;
12425;SDS011;6277;49.824;9.562;2022-11-24T01:06:26;4.53;;;1.38;;
12425;SDS011;6277;49.824;9.562;2022-11-24T01:08:52;5.20;;;1.30;;
12425;SDS011;6277;49.824;9.562;2022-11-24T01:11:19;4.93;;;1.40;;
12425;SDS011;6277;49.824;9.562;2022-11-24T01:13:54;4.03;;;1.10;;
12425;SDS011;6277;49.824;9.562;2022-11-24T01:16:28;3.67;;;1.23;;
12425;SDS011;6277;49.824;9.562;2022-11-24T01:18:57;4.85;;;1.25;;
12425;SDS011;6277;49.824;9.562;2022-11-24T01:21:23;4.00;;;1.52;;
12425;SDS011;6277;49.824;9.562;2022-11-24T01:23:48;5.88;;;1.55;;
12425;SDS011;6277;49.824;9.562;2022-11-24T01:26:15;4.20;;;1.48;;
12425;SDS011;6277;49.824;9.562;2022-11-24T01:28:43;4.97;;;1.60;;
12425;SDS011;6277;49.824;9.562;2022-11-24T01:31:09;3.70;;;1.65;;
12425;SDS011;6277;49.824;9.562;2022-11-24T01:33:35;6.20;;;1.50;;
12425;SDS011;6277;49.824;9.562;2022-11-24T01:36:00;4.40;;;1.65;;
12425;SDS011;6277;49.824;9.562;2022-11-24T01:38:27;6.40;;;1.40;;
12425;SDS011;6277;49.824;9.562;2022-11-24T01:41:06;5.07;;;1.40;;
12425;SDS011;6277;49.824;9.562;2022-11-24T01:43:35;5.47;;;1.73;;
12425;SDS011;6277;49.824;9.562;2022-11-24T01:46:16;5.22;;;1.38;;
12425;SDS011;6277;49.824;9.562;2022-11-24T01:51:36;5.82;;;1.50;;
12425;SDS011;6277;49.824;9.562;2022-11-24T01:54:07;5.13;;;1.40;;
12425;SDS011;6277;49.824;9.562;2022-11-24T01:56:37;5.55;;;1.00;;
12425;SDS011;6277;49.824;9.562;2022-11-24T01:59:06;3.42;;;1.20;;
12425;SDS011;6277;49.824;9.562;2022-11-24T02:01:35;4.75;;;1.30;;
12425;SDS011;6277;49.824;9.562;2022-11-24T02:04:02;7.05;;;1.65;;
12425;SDS011;6277;49.824;9.562;2022-11-24T02:06:30;3.63;;;1.13;;
12425;SDS011;6277;49.824;9.562;2022-11-24T02:09:04;4.93;;;1.50;;
12425;SDS011;6277;49.824;9.562;2022-11-24T02:11:40;4.13;;;1.23;;
12425;SDS011;6277;49.824;9.562;2022-11-24T02:14:08;6.25;;;1.55;;
12425;SDS011;6277;49.824;9.562;2022-11-24T02:16:35;4.18;;;1.25;;
12425;SDS011;6277;49.824;9.562;2022-11-24T02:19:03;8.13;;;1.27;;
12425;SDS011;6277;49.824;9.562;2022-11-24T02:21:38;4.95;;;1.10;;
12425;SDS011;6277;49.824;9.562;2022-11-24T02:24:16;5.70;;;1.30;;
12425;SDS011;6277;49.824;9.562;2022-11-24T02:29:15;6.60;;;1.45;;
12425;SDS011;6277;49.824;9.562;2022-11-24T02:31:46;9.73;;;1.70;;
12425;SDS011;6277;49.824;9.562;2022-11-24T02:34:15;7.90;;;1.63;;
12425;SDS011;6277;49.824;9.562;2022-11-24T02:36:40;5.20;;;1.20;;
12425;SDS011;6277;49.824;9.562;2022-11-24T02:39:12;6.30;;;1.23;;
12425;SDS011;6277;49.824;9.562;2022-11-24T02:41:40;5.25;;;1.42;;
12425;SDS011;6277;49.824;9.562;2022-11-24T02:44:08;6.85;;;1.40;;
12425;SDS011;6277;49.824;9.562;2022-11-24T02:46:36;7.55;;;1.23;;
12425;SDS011;6277;49.824;9.562;2022-11-24T02:49:01;7.03;;;1.48;;
12425;SDS011;6277;49.824;9.562;2022-11-24T02:51:27;5.95;;;1.23;;
12425;SDS011;6277;49.824;9.562;2022-11-24T02:53:53;7.57;;;1.70;;
12425;SDS011;6277;49.824;9.562;2022-11-24T02:56:19;6.88;;;1.35;;
12425;SDS011;6277;49.824;9.562;2022-11-24T02:58:44;5.80;;;1.48;;
12425;SDS011;6277;49.824;9.562;2022-11-24T03:01:10;8.48;;;1.45;;
12425;SDS011;6277;49.824;9.562;2022-11-24T03:03:35;4.88;;;1.52;;
12425;SDS011;6277;49.824;9.562;2022-11-24T03:06:01;6.13;;;1.52;;
12425;SDS011;6277;49.824;9.562;2022-11-24T03:08:27;5.30;;;1.73;;
12425;SDS011;6277;49.824;9.562;2022-11-24T03:10:52;5.15;;;1.65;;
12425;SDS011;6277;49.824;9.562;2022-11-24T03:13:18;10.40;;;2.22;;
12425;SDS011;6277;49.824;9.562;2022-11-24T03:15:44;5.95;;;1.52;;
12425;SDS011;6277;49.824;9.562;2022-11-24T03:18:10;6.57;;;1.65;;
12425;SDS011;6277;49.824;9.562;2022-11-24T03:20:35;5.97;;;1.65;;
12425;SDS011;6277;49.824;9.562;2022-11-24T03:23:01;7.97;;;1.50;;
12425;SDS011;6277;49.824;9.562;2022-11-24T03:25:26;7.00;;;1.77;;
12425;SDS011;6277;49.824;9.562;2022-11-24T03:27:52;4.82;;;1.80;;
12425;SDS011;6277;49.824;9.562;2022-11-24T03:30:19;5.63;;;1.63;;
12425;SDS011;6277;49.824;9.562;2022-11-24T03:32:44;5.72;;;1.50;;
12425;SDS011;6277;49.824;9.562;2022-11-24T03:35:10;4.28;;;1.42;;
12425;SDS011;6277;49.824;9.562;2022-11-24T03:37:36;4.72;;;1.45;;
12425;SDS011;6277;49.824;9.562;2022-11-24T03:40:01;4.72;;;1.33;;
12425;SDS011;6277;49.824;9.562;2022-11-24T03:42:27;5.20;;;1.52;;
12425;SDS011;6277;49.824;9.562;2022-11-24T03:44:53;6.00;;;1.35;;
12425;SDS011;6277;49.824;9.562;2022-11-24T03:47:18;4.90;;;1.42;;
12425;SDS011;6277;49.824;9.562;2022-11-24T03:49:44;6.93;;;1.65;;
12425;SDS011;6277;49.824;9.562;2022-11-24T03:52:09;7.28;;;1.60;;
12425;SDS011;6277;49.824;9.562;2022-11-24T03:54:35;5.63;;;1.45;;
12425;SDS011;6277;49.824;9.562;2022-11-24T03:57:00;6.15;;;1.42;;
12425;SDS011;6277;49.824;9.562;2022-11-24T03:59:26;6.30;;;1.42;;
12425;SDS011;6277;49.824;9.562;2022-11-24T04:01:52;3.65;;;1.33;;
12425;SDS011;6277;49.824;9.562;2022-11-24T04:04:17;4.55;;;1.60;;
12425;SDS011;6277;49.824;9.562;2022-11-24T04:06:43;6.30;;;1.33;;
12425;SDS011;6277;49.824;9.562;2022-11-24T04:09:08;8.23;;;2.38;;
12425;SDS011;6277;49.824;9.562;2022-11-24T04:11:34;6.40;;;2.10;;
12425;SDS011;6277;49.824;9.562;2022-11-24T04:14:18;4.10;;;1.20;;
12425;SDS011;6277;49.824;9.562;2022-11-24T04:16:44;6.82;;;1.65;;
12425;SDS011;6277;49.824;9.562;2022-11-24T04:19:10;6.10;;;2.05;;
12425;SDS011;6277;49.824;9.562;2022-11-24T04:21:36;5.38;;;2.03;;
12425;SDS011;6277;49.824;9.562;2022-11-24T04:24:02;6.60;;;1.58;;
12425;SDS011;6277;49.824;9.562;2022-11-24T04:26:27;4.07;;;1.58;;
12425;SDS011;6277;49.824;9.562;2022-11-24T04:28:53;5.82;;;1.60;;
12425;SDS011;6277;49.824;9.562;2022-11-24T04:31:18;6.72;;;1.65;;
12425;SDS011;6277;49.824;9.562;2022-11-24T04:33:44;6.03;;;1.92;;
12425;SDS011;6277;49.824;9.562;2022-11-24T04:36:10;3.53;;;1.23;;
12425;SDS011;6277;49.824;9.562;2022-11-24T04:38:36;4.47;;;1.30;;
12425;SDS011;6277;49.824;9.562;2022-11-24T04:41:02;4.13;;;1.20;;
12425;SDS011;6277;49.824;9.562;2022-11-24T04:43:29;5.10;;;1.30;;
12425;SDS011;6277;49.824;9.562;2022-11-24T04:45:55;5.88;;;1.60;;
12425;SDS011;6277;49.824;9.562;2022-11-24T04:48:23;6.25;;;1.48;;
12425;SDS011;6277;49.824;9.562;2022-11-24T04:50:48;5.05;;;1.50;;
12425;SDS011;6277;49.824;9.562;2022-11-24T04:53:14;6.70;;;1.65;;
12425;SDS011;6277;49.824;9.562;2022-11-24T04:55:39;5.10;;;1.30;;
12425;SDS011;6277;49.824;9.562;2022-11-24T04:58:11;2.63;;;1.00;;
12425;SDS011;6277;49.824;9.562;2022-11-24T05:00:38;2.67;;;0.98;;
12425;SDS011;6277;49.824;9.562;2022-11-24T05:03:03;2.92;;;1.13;;
12425;SDS011;6277;49.824;9.562;2022-11-24T05:05:30;4.60;;;1.20;;
12425;SDS011;6277;49.824;9.562;2022-11-24T05:07:57;6.22;;;1.35;;
12425;SDS011;6277;49.824;9.562;2022-11-24T05:10:23;4.03;;;1.08;;
12425;SDS011;6277;49.824;9.562;2022-11-24T05:13:11;4.30;;;1.15;;
12425;SDS011;6277;49.824;9.562;2022-11-24T05:15:38;5.75;;;1.08;;
12425;SDS011;6277;49.824;9.562;2022-11-24T05:18:05;3.30;;;1.00;;
12425;SDS011;6277;49.824;9.562;2022-11-24T05:20:31;2.55;;;1.00;;
12425;SDS011;6277;49.824;9.562;2022-11-24T05:23:04;6.20;;;1.30;;
12425;SDS011;6277;49.824;9.562;2022-11-24T05:25:32;7.07;;;1.40;;
12425;SDS011;6277;49.824;9.562;2022-11-24T05:27:59;4.20;;;1.30;;
12425;SDS011;6277;49.824;9.562;2022-11-24T05:30:26;3.70;;;1.20;;
12425;SDS011;6277;49.824;9.562;2022-11-24T05:32:52;5.95;;;1.17;;
12425;SDS011;6277;49.824;9.562;2022-11-24T05:35:17;4.07;;;1.30;;
12425;SDS011;6277;49.824;9.562;2022-11-24T05:37:43;6.07;;;1.40;;
12425;SDS011;6277;49.824;9.562;2022-11-24T05:40:09;2.65;;;1.10;;
12425;SDS011;6277;49.824;9.562;2022-11-24T05:42:35;4.47;;;1.48;;
12425;SDS011;6277;49.824;9.562;2022-11-24T05:45:27;5.50;;;1.42;;
12425;SDS011;6277;49.824;9.562;2022-11-24T05:47:52;4.80;;;1.20;;
12425;SDS011;6277;49.824;9.562;2022-11-24T05:50:18;3.50;;;1.27;;
12425;SDS011;6277;49.824;9.562;2022-11-24T05:52:45;6.35;;;1.20;;
12425;SDS011;6277;49.824;9.562;2022-11-24T05:55:11;5.43;;;1.35;;
12425;SDS011;6277;49.824;9.562;2022-11-24T05:57:39;5.13;;;1.35;;
12425;SDS011;6277;49.824;9.562;2022-11-24T06:00:04;4.20;;;1.45;;
12425;SDS011;6277;49.824;9.562;2022-11-24T06:02:31;3.60;;;1.10;;
12425;SDS011;6277;49.824;9.562;2022-11-24T06:04:57;3.33;;;0.90;;
12425;SDS011;6277;49.824;9.562;2022-11-24T06:07:22;5.05;;;1.17;;
12425;SDS011;6277;49.824;9.562;2022-11-24T06:09:48;5.35;;;1.42;;
12425;SDS011;6277;49.824;9.562;2022-11-24T06:12:14;3.53;;;1.05;;
12425;SDS011;6277;49.824;9.562;2022-11-24T06:14:40;3.95;;;1.02;;
12425;SDS011;6277;49.824;9.562;2022-11-24T06:17:06;4.93;;;1.33;;
12425;SDS011;6277;49.824;9.562;2022-11-24T06:19:32;5.47;;;1.30;;
12425;SDS011;6277;49.824;9.562;2022-11-24T06:21:57;4.97;;;1.65;;
12425;SDS011;6277;49.824;9.562;2022-11-24T06:24:23;4.03;;;1.23;;
12425;SDS011;6277;49.824;9.562;2022-11-24T06:26:49;9.23;;;1.35;;
12425;SDS011;6277;49.824;9.562;2022-11-24T06:29:14;8.18;;;1.65;;
12425;SDS011;6277;49.824;9.562;2022-11-24T06:31:40;8.30;;;1.90;;
12425;SDS011;6277;49.824;9.562;2022-11-24T06:34:06;4.38;;;1.27;;
12425;SDS011;6277;49.824;9.562;2022-11-24T06:36:32;6.88;;;1.67;;
12425;SDS011;6277;49.824;9.562;2022-11-24T06:39:01;7.60;;;1.42;;
12425;SDS011;6277;49.824;9.562;2022-11-24T06:41:26;7.20;;;2.13;;
12425;SDS011;6277;49.824;9.562;2022-11-24T06:43:52;9.18;;;2.00;;
12425;SDS011;6277;49.824;9.562;2022-11-24T06:46:18;5.00;;;1.50;;
12425;SDS011;6277;49.824;9.562;2022-11-24T06:48:44;6.15;;;1.77;;
12425;SDS011;6277;49.824;9.562;2022-11-24T06:51:11;7.90;;;1.80;;
12425;SDS011;6277;49.824;9.562;2022-11-24T06:53:37;6.75;;;1.50;;
12425;SDS011;6277;49.824;9.562;2022-11-24T06:56:11;4.18;;;1.42;;
12425;SDS011;6277;49.824;9.562;2022-11-24T06:58:41;7.20;;;2.28;;
12425;SDS011;6277;49.824;9.562;2022-11-24T07:03:44;4.55;;;1.25;;
12425;SDS011;6277;49.824;9.562;2022-11-24T07:06:12;3.53;;;1.38;;
12425;SDS011;6277;49.824;9.562;2022-11-24T07:08:37;7.93;;;1.65;;
12425;SDS011;6277;49.824;9.562;2022-11-24T07:11:06;5.63;;;1.45;;
12425;SDS011;6277;49.824;9.562;2022-11-24T07:13:33;3.70;;;1.13;;
12425;SDS011;6277;49.824;9.562;2022-11-24T07:16:05;4.85;;;1.23;;
12425;SDS011;6277;49.824;9.562;2022-11-24T07:18:35;8.95;;;2.00;;
12425;SDS011;6277;49.824;9.562;2022-11-24T07:21:02;6.75;;;1.65;;
12425;SDS011;6277;49.824;9.562;2022-11-24T07:23:28;4.68;;;1.33;;
12425;SDS011;6277;49.824;9.562;2022-11-24T07:25:54;7.47;;;1.70;;
12425;SDS011;6277;49.824;9.562;2022-11-24T07:28:20;7.85;;;1.75;;
12425;SDS011;6277;49.824;9.562;2022-11-24T07:30:46;7.97;;;1.90;;
12425;SDS011;6277;49.824;9.562;2022-11-24T07:33:11;8.35;;;1.73;;
12425;SDS011;6277;49.824;9.562;2022-11-24T07:35:37;6.13;;;1.83;;
12425;SDS011;6277;49.824;9.562;2022-11-24T07:38:02;6.85;;;1.73;;
12425;SDS011;6277;49.824;9.562;2022-11-24T07:40:28;6.78;;;1.88;;
12425;SDS011;6277;49.824;9.562;2022-11-24T07:42:53;5.82;;;2.00;;
12425;SDS011;6277;49.824;9.562;2022-11-24T07:45:19;4.72;;;1.35;;
12425;SDS011;6277;49.824;9.562;2022-11-24T07:47:45;5.22;;;1.70;;
12425;SDS011;6277;49.824;9.562;2022-11-24T07:50:11;3.80;;;1.30;;
12425;SDS011;6277;49.824;9.562;2022-11-24T07:52:37;5.75;;;1.58;;
12425;SDS011;6277;49.824;9.562;2022-11-24T07:55:03;7.50;;;1.63;;
12425;SDS011;6277;49.824;9.562;2022-11-24T07:57:29;6.90;;;1.80;;
12425;SDS011;6277;49.824;9.562;2022-11-24T07:59:55;6.78;;;1.67;;
12425;SDS011;6277;49.824;9.562;2022-11-24T08:02:20;7.15;;;1.70;;
12425;SDS011;6277;49.824;9.562;2022-11-24T08:04:46;6.85;;;1.48;;
12425;SDS011;6277;49.824;9.562;2022-11-24T08:07:12;6.00;;;1.70;;
12425;SDS011;6277;49.824;9.562;2022-11-24T08:09:37;8.00;;;1.75;;
12425;SDS011;6277;49.824;9.562;2022-11-24T08:12:03;8.20;;;2.00;;
12425;SDS011;6277;49.824;9.562;2022-11-24T08:14:29;9.05;;;1.55;;
12425;SDS011;6277;49.824;9.562;2022-11-24T08:16:54;6.50;;;1.77;;
12425;SDS011;6277;49.824;9.562;2022-11-24T08:19:21;5.68;;;1.77;;
12425;SDS011;6277;49.824;9.562;2022-11-24T08:21:46;9.18;;;1.83;;
12425;SDS011;6277;49.824;9.562;2022-11-24T08:24:12;8.63;;;2.10;;
12425;SDS011;6277;49.824;9.562;2022-11-24T08:26:39;7.93;;;2.30;;
12425;SDS011;6277;49.824;9.562;2022-11-24T08:29:06;6.30;;;2.10;;
12425;SDS011;6277;49.824;9.562;2022-11-24T08:31:31;9.18;;;1.95;;
12425;SDS011;6277;49.824;9.562;2022-11-24T08:33:58;5.40;;;1.45;;
12425;SDS011;6277;49.824;9.562;2022-11-24T08:36:24;8.13;;;1.65;;
12425;SDS011;6277;49.824;9.562;2022-11-24T08:38:53;5.70;;;1.80;;
12425;SDS011;6277;49.824;9.562;2022-11-24T08:41:22;6.68;;;1.75;;
12425;SDS011;6277;49.824;9.562;2022-11-24T08:43:49;9.32;;;1.92;;
12425;SDS011;6277;49.824;9.562;2022-11-24T08:46:16;9.30;;;2.05;;
12425;SDS011;6277;49.824;9.562;2022-11-24T08:48:45;8.23;;;2.28;;
12425;SDS011;6277;49.824;9.562;2022-11-24T08:51:16;9.43;;;1.83;;
12425;SDS011;6277;49.824;9.562;2022-11-24T08:53:43;8.45;;;2.10;;
12425;SDS011;6277;49.824;9.562;2022-11-24T08:56:09;6.63;;;1.73;;
12425;SDS011;6277;49.824;9.562;2022-11-24T08:58:36;6.85;;;1.98;;
12425;SDS011;6277;49.824;9.562;2022-11-24T09:01:05;5.15;;;1.70;;
12425;SDS011;6277;49.824;9.562;2022-11-24T09:03:42;7.93;;;1.67;;
12425;SDS011;6277;49.824;9.562;2022-11-24T09:06:08;6.20;;;1.60;;
12425;SDS011;6277;49.824;9.562;2022-11-24T09:08:34;8.70;;;1.80;;
12425;SDS011;6277;49.824;9.562;2022-11-24T09:11:01;7.13;;;1.50;;
12425;SDS011;6277;49.824;9.562;2022-11-24T09:13:29;5.35;;;2.00;;
12425;SDS011;6277;49.824;9.562;2022-11-24T09:15:54;6.68;;;1.85;;
12425;SDS011;6277;49.824;9.562;2022-11-24T09:18:20;6.32;;;1.90;;
12425;SDS011;6277;49.824;9.562;2022-11-24T09:20:45;5.88;;;2.20;;
12425;SDS011;6277;49.824;9.562;2022-11-24T09:23:11;9.25;;;1.77;;
12425;SDS011;6277;49.824;9.562;2022-11-24T09:25:37;6.68;;;2.10;;
12425;SDS011;6277;49.824;9.562;2022-11-24T09:28:02;5.13;;;1.52;;
12425;SDS011;6277;49.824;9.562;2022-11-24T09:30:28;7.68;;;1.85;;
12425;SDS011;6277;49.824;9.562;2022-11-24T09:32:54;5.68;;;1.60;;
12425;SDS011;6277;49.824;9.562;2022-11-24T09:35:20;6.15;;;1.60;;
12425;SDS011;6277;49.824;9.562;2022-11-24T09:37:46;7.07;;;1.73;;
12425;SDS011;6277;49.824;9.562;2022-11-24T09:40:12;4.53;;;1.15;;
12425;SDS011;6277;49.824;9.562;2022-11-24T09:42:42;6.70;;;1.60;;
12425;SDS011;6277;49.824;9.562;2022-11-24T09:50:28;4.80;;;1.25;;
12425;SDS011;6277;49.824;9.562;2022-11-24T09:58:11;4.03;;;0.98;;
12425;SDS011;6277;49.824;9.562;2022-11-24T10:00:56;4.28;;;1.08;;
12425;SDS011;6277;49.824;9.562;2022-11-24T10:06:02;6.63;;;1.27;;
12425;SDS011;6277;49.824;9.562;2022-11-24T10:08:59;4.65;;;1.10;;
12425;SDS011;6277;49.824;9.562;2022-11-24T10:19:47;5.28;;;1.60;;
12425;SDS011;6277;49.824;9.562;2022-11-24T10:22:34;6.28;;;1.50;;
12425;SDS011;6277;49.824;9.562;2022-11-24T10:25:19;3.80;;;1.20;;
12425;SDS011;6277;49.824;9.562;2022-11-24T10:27:59;3.88;;;1.10;;
12425;SDS011;6277;49.824;9.562;2022-11-24T10:30:27;4.38;;;1.15;;
12425;SDS011;6277;49.824;9.562;2022-11-24T10:32:57;3.42;;;1.30;;
12425;SDS011;6277;49.824;9.562;2022-11-24T10:35:36;4.38;;;1.23;;
12425;SDS011;6277;49.824;9.562;2022-11-24T10:40:39;3.45;;;1.30;;
12425;SDS011;6277;49.824;9.562;2022-11-24T10:43:09;7.28;;;1.52;;
12425;SDS011;6277;49.824;9.562;2022-11-24T10:45:36;6.53;;;1.33;;
12425;SDS011;6277;49.824;9.562;2022-11-24T10:48:04;3.70;;;1.00;;
12425;SDS011;6277;49.824;9.562;2022-11-24T10:50:35;3.55;;;1.33;;
12425;SDS011;6277;49.824;9.562;2022-11-24T11:01:00;3.70;;;1.23;;
12425;SDS011;6277;49.824;9.562;2022-11-24T11:03:48;5.07;;;1.40;;
12425;SDS011;6277;49.824;9.562;2022-11-24T11:06:20;5.15;;;1.25;;
12425;SDS011;6277;49.824;9.562;2022-11-24T11:11:31;3.10;;;1.00;;
12425;SDS011;6277;49.824;9.562;2022-11-24T11:13:59;5.20;;;1.05;;
12425;SDS011;6277;49.824;9.562;2022-11-24T11:16:29;4.55;;;1.00;;
12425;SDS011;6277;49.824;9.562;2022-11-24T11:24:40;5.20;;;1.25;;
12425;SDS011;6277;49.824;9.562;2022-11-24T11:29:44;4.70;;;1.50;;
12425;SDS011;6277;49.824;9.562;2022-11-24T11:32:17;3.95;;;1.30;;
12425;SDS011;6277;49.824;9.562;2022-11-24T11:34:46;3.92;;;0.98;;
12425;SDS011;6277;49.824;9.562;2022-11-24T11:37:13;3.55;;;1.10;;
12425;SDS011;6277;49.824;9.562;2022-11-24T11:39:40;4.75;;;1.15;;
12425;SDS011;6277;49.824;9.562;2022-11-24T11:44:53;5.40;;;1.35;;
12425;SDS011;6277;49.824;9.562;2022-11-24T11:50:10;3.28;;;1.13;;
12425;SDS011;6277;49.824;9.562;2022-11-24T11:52:43;3.13;;;1.10;;
12425;SDS011;6277;49.824;9.562;2022-11-24T11:55:36;3.47;;;0.93;;
12425;SDS011;6277;49.824;9.562;2022-11-24T12:01:25;3.38;;;1.17;;
12425;SDS011;6277;49.824;9.562;2022-11-24T12:06:52;3.55;;;1.00;;
12425;SDS011;6277;49.824;9.562;2022-11-24T12:23:37;4.85;;;1.38;;
12425;SDS011;6277;49.824;9.562;2022-11-24T12:26:23;5.88;;;1.45;;
12425;SDS011;6277;49.824;9.562;2022-11-24T12:31:49;7.35;;;1.30;;
12425;SDS011;6277;49.824;9.562;2022-11-24T12:50:57;4.70;;;1.25;;
12425;SDS011;6277;49.824;9.562;2022-11-24T12:53:31;4.70;;;1.20;;
12425;SDS011;6277;49.824;9.562;2022-11-24T12:56:03;3.80;;;0.95;;
12425;SDS011;6277;49.824;9.562;2022-11-24T12:58:45;3.80;;;0.87;;
12425;SDS011;6277;49.824;9.562;2022-11-24T13:11:45;4.55;;;1.02;;
12425;SDS011;6277;49.824;9.562;2022-11-24T13:14:23;3.95;;;1.00;;
12425;SDS011;6277;49.824;9.562;2022-11-24T13:19:25;2.70;;;1.00;;
12425;SDS011;6277;49.824;9.562;2022-11-24T13:22:00;4.78;;;1.17;;
12425;SDS011;6277;49.824;9.562;2022-11-24T13:24:34;4.75;;;1.30;;
12425;SDS011;6277;49.824;9.562;2022-11-24T13:29:51;2.50;;;0.90;;
12425;SDS011;6277;49.824;9.562;2022-11-24T13:42:15;2.95;;;0.90;;
12425;SDS011;6277;49.824;9.562;2022-11-24T13:44:45;5.32;;;1.05;;
12425;SDS011;6277;49.824;9.562;2022-11-24T13:47:28;4.25;;;1.05;;
12425;SDS011;6277;49.824;9.562;2022-11-24T13:49:54;3.70;;;1.20;;
12425;SDS011;6277;49.824;9.562;2022-11-24T13:57:40;3.30;;;0.90;;
12425;SDS011;6277;49.824;9.562;2022-11-24T14:00:55;11.60;;;1.27;;
12425;SDS011;6277;49.824;9.562;2022-11-24T14:03:33;2.78;;;0.80;;
12425;SDS011;6277;49.824;9.562;2022-11-24T14:06:03;3.83;;;1.00;;
12425;SDS011;6277;49.824;9.562;2022-11-24T14:08:31;3.67;;;0.98;;
12425;SDS011;6277;49.824;9.562;2022-11-24T14:11:00;3.58;;;1.00;;
12425;SDS011;6277;49.824;9.562;2022-11-24T14:18:33;5.38;;;1.10;;
12425;SDS011;6277;49.824;9.562;2022-11-24T14:21:00;7.28;;;1.48;;
12425;SDS011;6277;49.824;9.562;2022-11-24T14:23:43;4.15;;;1.10;;
12425;SDS011;6277;49.824;9.562;2022-11-24T14:26:19;4.53;;;1.05;;
12425;SDS011;6277;49.824;9.562;2022-11-24T14:28:46;3.17;;;1.10;;
12425;SDS011;6277;49.824;9.562;2022-11-24T14:31:24;5.78;;;1.42;;
12425;SDS011;6277;49.824;9.562;2022-11-24T14:34:05;5.43;;;1.15;;
12425;SDS011;6277;49.824;9.562;2022-11-24T14:36:44;3.60;;;0.90;;
12425;SDS011;6277;49.824;9.562;2022-11-24T14:39:17;3.50;;;0.90;;
12425;SDS011;6277;49.824;9.562;2022-11-24T14:41:51;5.03;;;1.30;;
12425;SDS011;6277;49.824;9.562;2022-11-24T14:44:30;4.28;;;0.85;;
12425;SDS011;6277;49.824;9.562;2022-11-24T14:47:20;3.50;;;0.77;;
12425;SDS011;6277;49.824;9.562;2022-11-24T14:49:49;3.45;;;0.80;;
12425;SDS011;6277;49.824;9.562;2022-11-24T14:52:17;6.22;;;1.48;;
12425;SDS011;6277;49.824;9.562;2022-11-24T14:54:51;5.32;;;1.23;;
12425;SDS011;6277;49.824;9.562;2022-11-24T14:57:23;5.28;;;1.00;;
12425;SDS011;6277;49.824;9.562;2022-11-24T15:00:04;3.53;;;0.93;;
12425;SDS011;6277;49.824;9.562;2022-11-24T15:05:48;3.78;;;0.85;;
12425;SDS011;6277;49.824;9.562;2022-11-24T15:08:20;5.15;;;1.08;;
12425;SDS011;6277;49.824;9.562;2022-11-24T15:10:47;3.25;;;0.80;;
12425;SDS011;6277;49.824;9.562;2022-11-24T15:13:23;4.15;;;0.98;;
12425;SDS011;6277;49.824;9.562;2022-11-24T15:15:51;1.98;;;0.80;;
12425;SDS011;6277;49.824;9.562;2022-11-24T15:18:34;5.50;;;0.95;;
12425;SDS011;6277;49.824;9.562;2022-11-24T15:21:05;4.13;;;1.08;;
12425;SDS011;6277;49.824;9.562;2022-11-24T15:23:31;5.82;;;0.98;;
12425;SDS011;6277;49.824;9.562;2022-11-24T15:28:31;2.90;;;0.90;;
12425;SDS011;6277;49.824;9.562;2022-11-24T15:31:04;3.80;;;0.85;;
12425;SDS011;6277;49.824;9.562;2022-11-24T15:33:30;3.13;;;1.08;;
12425;SDS011;6277;49.824;9.562;2022-11-24T15:35:56;3.95;;;0.73;;
12425;SDS011;6277;49.824;9.562;2022-11-24T15:38:23;5.68;;;1.20;;
12425;SDS011;6277;49.824;9.562;2022-11-24T15:40:49;4.63;;;1.13;;
12425;SDS011;6277;49.824;9.562;2022-11-24T15:45:56;6.50;;;1.10;;
12425;SDS011;6277;49.824;9.562;2022-11-24T15:48:22;5.95;;;1.30;;
12425;SDS011;6277;49.824;9.562;2022-11-24T15:50:48;4.70;;;1.35;;
12425;SDS011;6277;49.824;9.562;2022-11-24T15:53:16;2.70;;;0.90;;
12425;SDS011;6277;49.824;9.562;2022-11-24T15:55:48;4.10;;;1.20;;
12425;SDS011;6277;49.824;9.562;2022-11-24T15:58:14;5.85;;;1.08;;
12425;SDS011;6277;49.824;9.562;2022-11-24T16:00:40;3.50;;;1.33;;
12425;SDS011;6277;49.824;9.562;2022-11-24T16:03:07;6.30;;;1.33;;
12425;SDS011;6277;49.824;9.562;2022-11-24T16:05:32;5.15;;;1.40;;
12425;SDS011;6277;49.824;9.562;2022-11-24T16:08:00;4.20;;;1.05;;
12425;SDS011;6277;49.824;9.562;2022-11-24T16:10:30;4.90;;;1.00;;
12425;SDS011;6277;49.824;9.562;2022-11-24T16:12:58;2.63;;;1.17;;
12425;SDS011;6277;49.824;9.562;2022-11-24T16:15:24;6.18;;;1.55;;
12425;SDS011;6277;49.824;9.562;2022-11-24T16:17:49;4.47;;;1.20;;
12425;SDS011;6277;49.824;9.562;2022-11-24T16:20:15;5.80;;;1.55;;
12425;SDS011;6277;49.824;9.562;2022-11-24T16:22:41;2.65;;;0.90;;
12425;SDS011;6277;49.824;9.562;2022-11-24T16:25:07;5.47;;;1.27;;
12425;SDS011;6277;49.824;9.562;2022-11-24T16:27:33;4.07;;;1.20;;
12425;SDS011;6277;49.824;9.562;2022-11-24T16:29:58;3.63;;;1.05;;
12425;SDS011;6277;49.824;9.562;2022-11-24T16:32:25;4.20;;;0.98;;
12425;SDS011;6277;49.824;9.562;2022-11-24T16:34:51;5.90;;;1.45;;
12425;SDS011;6277;49.824;9.562;2022-11-24T16:37:17;4.15;;;1.10;;
12425;SDS011;6277;49.824;9.562;2022-11-24T16:39:42;2.35;;;0.95;;
12425;SDS011;6277;49.824;9.562;2022-11-24T16:42:08;2.53;;;0.88;;
12425;SDS011;6277;49.824;9.562;2022-11-24T16:44:36;3.55;;;1.02;;
12425;SDS011;6277;49.824;9.562;2022-11-24T16:47:02;4.50;;;1.27;;
12425;SDS011;6277;49.824;9.562;2022-11-24T16:49:28;4.35;;;1.27;;
12425;SDS011;6277;49.824;9.562;2022-11-24T16:51:53;2.72;;;1.25;;
12425;SDS011;6277;49.824;9.562;2022-11-24T16:54:19;4.15;;;1.52;;
12425;SDS011;6277;49.824;9.562;2022-11-24T16:56:44;5.85;;;1.40;;
12425;SDS011;6277;49.824;9.562;2022-11-24T16:59:10;3.42;;;1.20;;
12425;SDS011;6277;49.824;9.562;2022-11-24T17:01:35;5.00;;;1.40;;
12425;SDS011;6277;49.824;9.562;2022-11-24T17:04:03;4.30;;;1.50;;
12425;SDS011;6277;49.824;9.562;2022-11-24T17:06:30;3.60;;;1.33;;
12425;SDS011;6277;49.824;9.562;2022-11-24T17:08:57;5.95;;;1.60;;
12425;SDS011;6277;49.824;9.562;2022-11-24T17:11:23;5.88;;;1.80;;
12425;SDS011;6277;49.824;9.562;2022-11-24T17:13:50;6.75;;;2.30;;
12425;SDS011;6277;49.824;9.562;2022-11-24T17:16:17;4.40;;;1.80;;
12425;SDS011;6277;49.824;9.562;2022-11-24T17:18:47;5.13;;;1.83;;
12425;SDS011;6277;49.824;9.562;2022-11-24T17:21:19;6.70;;;1.73;;
12425;SDS011;6277;49.824;9.562;2022-11-24T17:23:47;4.75;;;1.83;;
12425;SDS011;6277;49.824;9.562;2022-11-24T17:26:17;3.17;;;1.60;;
12425;SDS011;6277;49.824;9.562;2022-11-24T17:28:43;4.55;;;1.73;;